Asbury, Missouri
Current Conditions -  °F | °C
As of 9:53 PM on Saturday 25 Oct 2014 (Local Time) from KJLN Reporting Station
Haze Haze  
Wind Chill: 65°   Ceiling: Unl
Heat Index: 65°   Visibility: 6mi
Dew Point: 63°   Wind: 5mph
Humidity: 93%   Direction: 140°SE
Pressure: 30.02"   Gusts: NA
Location:  37.27°N, 94.61°W
Report Text: KJLN 260253Z AUTO 14004KT 6SM BR CLR 18/17 A3002 RMK AO2 SLP158 T01830172 58002
Loading
Personal Weather Stations






























Interactive Weather Map New forecast layout! Learn more

10-Day Weather Forecast

Advertisements
Track Severe Weather on mobile